Time;durP1;ratioP1;P1;durP2;ratioP2;P2;SDS_P1;SDS_P2;PMS_P1;PMS_P2;Temp;Humidity;BMP_temperature;BMP_pressure;BME280_temperature;BME280_humidity;BME280_pressure;Samples;Min_cycle;Max_cycle;Signal;HPM_P1;HPM_P2
2022/06/20 00:01:06;;;;;;;14.33;10.93;;;;;;;;;;5133601;27;20288;-76
2022/06/20 00:03:37;;;;;;;19.57;12.70;;;;;;;;;;5134894;27;20288;-76
2022/06/20 00:06:04;;;;;;;14.63;11.83;;;;;;;;;;5124353;27;20303;-76
2022/06/20 00:08:32;;;;;;;14.30;11.43;;;;;;;;;;5134867;27;20854;-75
2022/06/20 00:10:59;;;;;;;14.57;11.50;;;;;;;;;;5130426;27;20229;-76
2022/06/20 00:13:27;;;;;;;15.63;12.13;;;;;;;;;;5114238;28;20293;-75
2022/06/20 00:15:56;;;;;;;16.87;12.37;;;;;;;;;;5122108;27;20194;-76
2022/06/20 00:18:25;;;;;;;15.47;11.80;;;;;;;;;;5113905;28;20202;-76
2022/06/20 00:20:52;;;;;;;15.47;12.53;;;;;;;;;;5113773;28;20215;-76
2022/06/20 00:23:20;;;;;;;16.07;11.93;;;;;;;;;;5113517;28;20237;-76
2022/06/20 00:25:47;;;;;;;19.37;12.37;;;;;;;;;;5113756;28;20237;-76
2022/06/20 00:28:15;;;;;;;21.33;13.07;;;;;;;;;;5112783;28;20339;-76
2022/06/20 00:30:43;;;;;;;17.30;12.27;;;;;;;;;;5113845;28;20325;-76
2022/06/20 00:33:11;;;;;;;16.70;12.87;;;;;;;;;;5114198;27;20205;-76
2022/06/20 00:35:40;;;;;;;14.50;12.63;;;;;;;;;;5113169;28;20285;-76
2022/06/20 00:38:08;;;;;;;17.03;12.07;;;;;;;;;;5121233;27;20285;-76
2022/06/20 00:40:37;;;;;;;22.93;12.83;;;;;;;;;;5113410;28;20277;-76
2022/06/20 00:43:05;;;;;;;17.40;12.23;;;;;;;;;;5115765;27;20688;-76
2022/06/20 00:45:35;;;;;;;18.40;13.03;;;;;;;;;;5133823;27;20277;-76
2022/06/20 00:48:04;;;;;;;14.80;12.23;;;;;;;;;;5133712;27;20243;-76
2022/06/20 00:50:33;;;;;;;16.10;12.80;;;;;;;;;;5133568;27;20225;-76
2022/06/20 00:53:06;;;;;;;17.33;12.80;;;;;;;;;;5119141;27;20776;-76
2022/06/20 00:55:36;;;;;;;19.03;13.60;;;;;;;;;;5112616;28;20748;-76
2022/06/20 00:58:04;;;;;;;14.90;13.20;;;;;;;;;;5118131;27;20276;-76
2022/06/20 01:00:33;;;;;;;17.40;13.83;;;;;;;;;;5120140;27;20284;-75
2022/06/20 01:03:04;;;;;;;17.57;14.30;;;;;;;;;;5133536;27;20667;-76
2022/06/20 01:05:33;;;;;;;18.10;14.03;;;;;;;;;;5143506;27;20319;-76
2022/06/20 01:08:05;;;;;;;18.13;13.60;;;;;;;;;;5154121;27;20250;-76
2022/06/20 01:10:36;;;;;;;20.60;15.07;;;;;;;;;;5153761;27;20307;-76
2022/06/20 01:13:05;;;;;;;19.97;14.57;;;;;;;;;;5138309;27;20289;-75
2022/06/20 01:15:36;;;;;;;19.03;14.50;;;;;;;;;;5147014;27;20279;-76
2022/06/20 01:18:03;;;;;;;20.30;14.77;;;;;;;;;;5146120;27;20246;-76
2022/06/20 01:20:32;;;;;;;17.13;13.30;;;;;;;;;;5154047;27;20292;-76
2022/06/20 01:23:12;;;;;;;16.63;14.80;;;;;;;;;;5153720;27;20325;-76
2022/06/20 01:25:55;;;;;;;21.37;15.20;;;;;;;;;;5153748;27;20197;-76
2022/06/20 01:28:25;;;;;;;18.70;16.20;;;;;;;;;;5132936;27;20651;-75
2022/06/20 01:30:52;;;;;;;20.50;15.57;;;;;;;;;;5132754;27;20216;-76
2022/06/20 01:33:21;;;;;;;20.77;15.00;;;;;;;;;;5133001;27;20200;-75
2022/06/20 01:38:34;;;;;;;21.47;14.40;;;;;;;;;;5132588;27;20504;-76
2022/06/20 01:43:48;;;;;;;20.07;14.63;;;;;;;;;;5128506;27;20590;-76
2022/06/20 01:46:16;;;;;;;17.50;14.63;;;;;;;;;;5132885;27;20224;-75
2022/06/20 01:48:45;;;;;;;21.57;14.20;;;;;;;;;;5132642;27;20280;-75
2022/06/20 01:51:16;;;;;;;22.03;14.03;;;;;;;;;;5132379;27;20308;-76
2022/06/20 01:53:43;;;;;;;21.73;14.90;;;;;;;;;;5132470;27;20232;-75
2022/06/20 01:56:11;;;;;;;19.17;14.43;;;;;;;;;;5131979;27;20200;-76
2022/06/20 01:58:40;;;;;;;20.00;14.37;;;;;;;;;;5132637;27;20284;-76
2022/06/20 02:01:09;;;;;;;19.17;13.77;;;;;;;;;;5132374;27;20297;-76
2022/06/20 02:03:38;;;;;;;17.00;14.77;;;;;;;;;;5141234;27;20283;-75
2022/06/20 02:06:05;;;;;;;18.40;14.03;;;;;;;;;;5117174;27;20275;-75
2022/06/20 02:08:33;;;;;;;20.23;14.67;;;;;;;;;;5111560;28;20229;-76
2022/06/20 02:11:02;;;;;;;21.83;15.10;;;;;;;;;;5111083;28;20227;-76
2022/06/20 02:13:30;;;;;;;22.10;15.47;;;;;;;;;;5123538;28;20228;-76
2022/06/20 02:16:00;;;;;;;18.90;13.47;;;;;;;;;;5117252;28;20233;-75
2022/06/20 02:18:30;;;;;;;18.43;13.80;;;;;;;;;;5128542;28;20236;-75
2022/06/20 02:21:00;;;;;;;16.13;14.33;;;;;;;;;;5111448;28;20225;-75
2022/06/20 02:23:28;;;;;;;22.33;15.47;;;;;;;;;;5111817;28;20280;-76
2022/06/20 02:25:56;;;;;;;21.53;14.77;;;;;;;;;;5111618;28;20289;-75
2022/06/20 02:28:26;;;;;;;25.30;16.53;;;;;;;;;;5111024;28;20296;-75
2022/06/20 02:30:53;;;;;;;19.57;15.57;;;;;;;;;;5111755;28;20302;-75
2022/06/20 02:33:25;;;;;;;22.07;15.80;;;;;;;;;;5111475;28;20280;-75
2022/06/20 02:35:54;;;;;;;23.67;16.03;;;;;;;;;;5111660;28;20310;-75
2022/06/20 02:38:21;;;;;;;19.07;14.93;;;;;;;;;;5112305;28;20681;-75
2022/06/20 02:40:49;;;;;;;20.60;15.03;;;;;;;;;;5110926;28;20625;-75
2022/06/20 02:43:17;;;;;;;19.70;14.60;;;;;;;;;;5111745;28;20229;-76
2022/06/20 02:45:45;;;;;;;21.53;14.97;;;;;;;;;;5121065;28;20264;-75
2022/06/20 02:48:13;;;;;;;19.17;14.20;;;;;;;;;;5127259;28;20644;-75
2022/06/20 02:50:43;;;;;;;19.63;15.57;;;;;;;;;;5110984;28;20253;-76
2022/06/20 02:53:16;;;;;;;21.23;16.37;;;;;;;;;;5111024;28;20251;-75
2022/06/20 02:55:43;;;;;;;22.43;15.50;;;;;;;;;;5108726;28;20304;-75
2022/06/20 02:58:14;;;;;;;21.03;16.53;;;;;;;;;;5111523;28;20614;-75
2022/06/20 03:00:45;;;;;;;20.37;15.77;;;;;;;;;;5111191;28;20232;-75
2022/06/20 03:03:15;;;;;;;21.40;15.30;;;;;;;;;;5111083;28;20229;-75
2022/06/20 03:05:43;;;;;;;19.03;14.50;;;;;;;;;;5111105;28;20265;-75
2022/06/20 03:08:11;;;;;;;19.73;15.63;;;;;;;;;;5110969;28;20293;-75
2022/06/20 03:10:42;;;;;;;20.47;14.70;;;;;;;;;;5111672;28;20330;-76
2022/06/20 03:13:10;;;;;;;18.93;14.53;;;;;;;;;;5111235;28;20768;-76
2022/06/20 03:15:38;;;;;;;17.60;14.93;;;;;;;;;;5111403;28;20285;-75
2022/06/20 03:18:05;;;;;;;18.17;14.63;;;;;;;;;;5114701;28;20203;-76
2022/06/20 03:20:33;;;;;;;20.60;15.33;;;;;;;;;;5114712;28;20339;-75
2022/06/20 03:23:03;;;;;;;18.97;15.70;;;;;;;;;;5113887;28;20289;-76
2022/06/20 03:25:32;;;;;;;22.07;16.23;;;;;;;;;;5096295;28;20237;-75
2022/06/20 03:28:00;;;;;;;22.30;14.07;;;;;;;;;;5114437;28;20293;-75
2022/06/20 03:30:30;;;;;;;16.73;13.33;;;;;;;;;;5114200;28;20249;-75
2022/06/20 03:32:58;;;;;;;20.03;12.83;;;;;;;;;;5101543;28;20202;-75
2022/06/20 03:35:26;;;;;;;17.73;12.10;;;;;;;;;;5114398;28;20669;-75
2022/06/20 03:37:53;;;;;;;16.17;12.53;;;;;;;;;;5114270;28;20251;-76
2022/06/20 03:40:21;;;;;;;20.27;13.40;;;;;;;;;;5113761;28;20206;-75
2022/06/20 03:42:48;;;;;;;18.13;14.97;;;;;;;;;;5114698;28;20202;-76
2022/06/20 03:45:17;;;;;;;19.93;14.67;;;;;;;;;;5113925;28;20348;-76
2022/06/20 03:47:46;;;;;;;19.77;14.13;;;;;;;;;;5117822;27;20220;-76
2022/06/20 03:50:15;;;;;;;17.90;13.77;;;;;;;;;;5124211;27;20225;-76
2022/06/20 03:52:44;;;;;;;20.27;13.20;;;;;;;;;;5114216;28;20688;-76
2022/06/20 03:55:14;;;;;;;16.37;13.53;;;;;;;;;;5114455;28;20205;-75
2022/06/20 03:57:43;;;;;;;17.17;13.20;;;;;;;;;;5114155;28;20205;-76
2022/06/20 04:00:13;;;;;;;18.53;13.20;;;;;;;;;;5113967;28;20233;-75
2022/06/20 04:02:43;;;;;;;17.80;13.67;;;;;;;;;;5114125;28;20661;-75
2022/06/20 04:05:14;;;;;;;16.80;13.67;;;;;;;;;;5130069;27;20642;-76
2022/06/20 04:07:44;;;;;;;16.80;14.13;;;;;;;;;;5155048;27;20287;-76
2022/06/20 04:13:01;;;;;;;18.57;15.30;;;;;;;;;;5134316;27;20306;-75
2022/06/20 04:15:31;;;;;;;21.83;14.27;;;;;;;;;;5134628;27;20228;-75
2022/06/20 04:20:50;;;;;;;19.37;14.37;;;;;;;;;;5133906;27;20497;-76
2022/06/20 04:23:19;;;;;;;22.73;15.00;;;;;;;;;;5134339;27;20402;-76
2022/06/20 04:25:48;;;;;;;20.97;15.37;;;;;;;;;;5133617;27;20836;-75
2022/06/20 04:28:19;;;;;;;19.07;14.80;;;;;;;;;;5136991;27;20220;-76
2022/06/20 04:30:51;;;;;;;22.17;15.73;;;;;;;;;;5142825;27;20302;-76
2022/06/20 04:33:25;;;;;;;25.00;15.77;;;;;;;;;;5134253;27;20537;-76
2022/06/20 04:35:56;;;;;;;26.13;16.37;;;;;;;;;;5133229;27;20200;-75
2022/06/20 04:38:24;;;;;;;20.57;17.03;;;;;;;;;;5145930;27;20279;-75
2022/06/20 04:40:56;;;;;;;22.60;16.00;;;;;;;;;;5154751;27;20220;-75
2022/06/20 04:43:26;;;;;;;24.57;17.57;;;;;;;;;;5145010;27;20737;-75
2022/06/20 04:45:58;;;;;;;22.50;16.80;;;;;;;;;;5132892;27;20240;-75
2022/06/20 04:48:27;;;;;;;21.43;17.27;;;;;;;;;;5134008;27;20288;-75
2022/06/20 04:50:56;;;;;;;20.97;16.90;;;;;;;;;;5132973;27;20231;-75
2022/06/20 04:53:24;;;;;;;24.97;16.77;;;;;;;;;;5133678;27;20290;-75
2022/06/20 04:55:53;;;;;;;26.43;16.83;;;;;;;;;;5133650;27;20311;-75
2022/06/20 04:58:23;;;;;;;20.33;15.67;;;;;;;;;;5133330;27;20284;-75
2022/06/20 05:00:51;;;;;;;21.50;15.33;;;;;;;;;;5132547;27;20280;-74
2022/06/20 05:03:22;;;;;;;25.17;16.43;;;;;;;;;;5133438;27;20199;-73
2022/06/20 05:05:52;;;;;;;19.40;15.80;;;;;;;;;;5125053;27;20771;-74
2022/06/20 05:08:24;;;;;;;22.67;16.43;;;;;;;;;;5111444;28;20229;-73
2022/06/20 05:10:53;;;;;;;22.43;16.10;;;;;;;;;;5112592;28;20293;-74
2022/06/20 05:13:22;;;;;;;22.53;15.63;;;;;;;;;;5112245;28;20288;-73
2022/06/20 05:15:51;;;;;;;21.87;15.60;;;;;;;;;;5112716;28;20390;-73
2022/06/20 05:18:24;;;;;;;19.37;14.93;;;;;;;;;;5110813;28;20622;-73
2022/06/20 05:20:54;;;;;;;26.53;17.20;;;;;;;;;;5112270;27;20284;-73
2022/06/20 05:23:25;;;;;;;24.33;16.83;;;;;;;;;;5111715;28;20618;-73
2022/06/20 05:25:53;;;;;;;25.53;17.07;;;;;;;;;;5111752;28;20285;-73
2022/06/20 05:28:24;;;;;;;23.67;16.40;;;;;;;;;;5110000;28;20236;-73
2022/06/20 05:30:52;;;;;;;22.27;17.47;;;;;;;;;;5111344;28;20315;-73
2022/06/20 05:33:22;;;;;;;31.13;16.80;;;;;;;;;;5111417;28;20225;-73
2022/06/20 05:35:51;;;;;;;23.47;15.83;;;;;;;;;;5111341;28;20240;-73
2022/06/20 05:38:23;;;;;;;25.97;17.37;;;;;;;;;;5111312;28;20284;-73
2022/06/20 05:40:53;;;;;;;28.77;19.90;;;;;;;;;;5111668;28;20285;-73
2022/06/20 05:43:20;;;;;;;28.70;16.70;;;;;;;;;;5111779;28;20284;-73
2022/06/20 05:45:49;;;;;;;25.60;16.83;;;;;;;;;;5111437;28;20257;-74
2022/06/20 05:48:17;;;;;;;25.73;17.20;;;;;;;;;;5119592;27;20640;-74
2022/06/20 05:50:51;;;;;;;26.43;18.13;;;;;;;;;;5110805;28;20206;-73
2022/06/20 05:53:24;;;;;;;25.60;17.77;;;;;;;;;;5111184;28;20284;-73
2022/06/20 05:55:54;;;;;;;26.57;18.50;;;;;;;;;;5111120;28;20258;-73
2022/06/20 05:58:22;;;;;;;28.93;18.73;;;;;;;;;;5111852;28;20845;-73
2022/06/20 06:00:51;;;;;;;29.00;19.10;;;;;;;;;;5111436;28;20334;-73
2022/06/20 06:03:20;;;;;;;30.57;21.10;;;;;;;;;;5092901;28;20288;-73
2022/06/20 06:05:50;;;;;;;34.03;21.43;;;;;;;;;;5131736;27;20673;-74
2022/06/20 06:08:21;;;;;;;37.57;22.00;;;;;;;;;;5130689;27;20216;-74
2022/06/20 06:10:53;;;;;;;31.77;24.37;;;;;;;;;;5140777;27;20532;-74
2022/06/20 06:13:24;;;;;;;38.17;26.13;;;;;;;;;;5131061;28;20285;-74
2022/06/20 06:18:42;;;;;;;38.57;25.60;;;;;;;;;;5047062;28;20203;-74
2022/06/20 06:21:10;;;;;;;37.38;26.00;;;;;;;;;;5031777;28;20766;-74
2022/06/20 06:23:38;;;;;;;38.73;25.40;;;;;;;;;;5041818;28;20291;-74
2022/06/20 06:26:05;;;;;;;38.03;26.03;;;;;;;;;;5039390;28;20239;-74
2022/06/20 06:28:34;;;;;;;37.67;25.67;;;;;;;;;;5034152;28;20287;-74
2022/06/20 06:31:03;;;;;;;39.20;26.47;;;;;;;;;;5030905;28;20902;-74
2022/06/20 06:33:31;;;;;;;37.27;26.67;;;;;;;;;;5029670;28;20311;-74
2022/06/20 06:36:02;;;;;;;36.20;25.93;;;;;;;;;;5048655;28;20254;-74
2022/06/20 06:38:32;;;;;;;40.83;27.17;;;;;;;;;;5047809;28;20208;-74
2022/06/20 06:41:00;;;;;;;37.43;25.60;;;;;;;;;;5048344;28;20204;-74
2022/06/20 06:43:29;;;;;;;35.60;24.90;;;;;;;;;;5048622;28;20261;-74
2022/06/20 06:45:59;;;;;;;36.47;26.40;;;;;;;;;;5039465;28;20314;-74
2022/06/20 06:48:28;;;;;;;40.30;25.73;;;;;;;;;;5048556;28;20231;-74
2022/06/20 06:50:57;;;;;;;38.83;26.87;;;;;;;;;;5048870;28;20239;-74
2022/06/20 06:53:26;;;;;;;42.43;27.40;;;;;;;;;;5051840;28;20310;-74
2022/06/20 06:55:58;;;;;;;39.90;27.37;;;;;;;;;;5094254;27;20300;-74
2022/06/20 06:58:26;;;;;;;41.13;26.83;;;;;;;;;;5134954;27;20292;-74
2022/06/20 07:00:56;;;;;;;38.93;26.97;;;;;;;;;;5139476;27;20292;-74
2022/06/20 07:03:26;;;;;;;36.97;26.40;;;;;;;;;;5134996;27;20193;-74
2022/06/20 07:05:55;;;;;;;40.13;26.37;;;;;;;;;;5144380;27;20638;-74
2022/06/20 07:08:24;;;;;;;42.50;27.53;;;;;;;;;;5142817;27;20287;-74
2022/06/20 07:10:55;;;;;;;37.03;26.00;;;;;;;;;;5156708;27;20678;-74
2022/06/20 07:13:24;;;;;;;40.87;27.63;;;;;;;;;;5141733;27;20319;-74
2022/06/20 07:15:54;;;;;;;41.30;27.27;;;;;;;;;;5135267;27;20307;-74
2022/06/20 07:18:30;;;;;;;36.37;25.67;;;;;;;;;;5135667;27;20283;-74
2022/06/20 07:20:58;;;;;;;36.13;26.70;;;;;;;;;;5140889;27;20295;-74
2022/06/20 07:23:25;;;;;;;38.23;24.90;;;;;;;;;;5134856;27;20225;-74
2022/06/20 07:25:53;;;;;;;37.28;25.30;;;;;;;;;;5135310;27;20248;-74
2022/06/20 07:28:27;;;;;;;36.30;24.52;;;;;;;;;;5135171;27;20251;-74
2022/06/20 07:30:56;;;;;;;31.70;23.02;;;;;;;;;;5135715;27;20228;-74
2022/06/20 07:33:24;;;;;;;40.35;25.50;;;;;;;;;;5134356;27;20658;-74
2022/06/20 07:35:55;;;;;;;31.00;23.73;;;;;;;;;;5135191;27;20227;-74
2022/06/20 07:38:25;;;;;;;32.38;23.92;;;;;;;;;;5136284;27;20250;-74
2022/06/20 07:40:54;;;;;;;35.97;24.15;;;;;;;;;;5156031;27;20275;-74
2022/06/20 07:43:23;;;;;;;34.28;24.52;;;;;;;;;;5155319;27;20265;-74
2022/06/20 07:45:52;;;;;;;33.13;24.77;;;;;;;;;;5144446;27;20327;-74
2022/06/20 07:48:21;;;;;;;34.38;24.42;;;;;;;;;;5134372;27;20284;-73
2022/06/20 07:50:51;;;;;;;35.83;24.17;;;;;;;;;;5134917;27;20283;-74
2022/06/20 07:53:20;;;;;;;31.85;24.50;;;;;;;;;;5145017;27;20252;-74
2022/06/20 07:55:51;;;;;;;32.17;23.52;;;;;;;;;;5155540;27;20291;-74
2022/06/20 07:58:21;;;;;;;36.38;24.27;;;;;;;;;;5134172;27;20238;-74
2022/06/20 08:00:50;;;;;;;33.80;22.67;;;;;;;;;;5134938;27;20189;-74
2022/06/20 08:03:19;;;;;;;31.83;21.70;;;;;;;;;;5134304;27;20201;-74
2022/06/20 08:05:50;;;;;;;30.58;23.52;;;;;;;;;;5134346;27;20320;-74
2022/06/20 08:08:19;;;;;;;29.38;21.55;;;;;;;;;;5134682;27;20287;-74
2022/06/20 08:10:48;;;;;;;30.58;21.60;;;;;;;;;;5134329;27;20289;-74
2022/06/20 08:13:18;;;;;;;30.45;21.50;;;;;;;;;;5134097;27;20415;-74
2022/06/20 08:15:50;;;;;;;31.23;23.38;;;;;;;;;;5133991;27;20680;-74
2022/06/20 08:18:17;;;;;;;29.83;22.58;;;;;;;;;;5133568;27;20201;-74
2022/06/20 08:20:46;;;;;;;25.10;20.05;;;;;;;;;;5133422;27;20289;-74
2022/06/20 08:23:16;;;;;;;26.15;19.70;;;;;;;;;;5134195;27;20280;-74
2022/06/20 08:25:46;;;;;;;29.60;20.02;;;;;;;;;;5134173;27;20672;-74
2022/06/20 08:28:16;;;;;;;30.67;21.40;;;;;;;;;;5134220;27;20247;-74
2022/06/20 08:30:47;;;;;;;25.35;19.08;;;;;;;;;;5134057;27;20296;-74
2022/06/20 08:33:18;;;;;;;24.08;19.58;;;;;;;;;;5134448;27;20725;-74
2022/06/20 08:35:47;;;;;;;27.50;19.23;;;;;;;;;;5134076;27;20197;-74
2022/06/20 08:38:18;;;;;;;26.38;19.30;;;;;;;;;;5133865;27;20274;-74
2022/06/20 08:41:09;;;;;;;26.83;19.90;;;;;;;;;;5133297;27;20284;-74
2022/06/20 08:43:48;;;;;;;26.98;20.42;;;;;;;;;;5133128;27;20217;-74
2022/06/20 08:46:25;;;;;;;22.30;18.55;;;;;;;;;;5133665;27;20299;-74
2022/06/20 08:49:11;;;;;;;26.77;19.45;;;;;;;;;;5133413;27;20255;-74
2022/06/20 08:52:07;;;;;;;23.02;17.55;;;;;;;;;;5133351;27;20735;-74
2022/06/20 08:54:51;;;;;;;21.33;16.88;;;;;;;;;;5133883;27;20660;-74
2022/06/20 08:57:22;;;;;;;23.88;15.82;;;;;;;;;;5133404;27;20284;-74
2022/06/20 09:00:03;;;;;;;20.98;16.75;;;;;;;;;;5133183;27;20205;-75
2022/06/20 09:02:50;;;;;;;23.20;17.23;;;;;;;;;;5133631;27;20601;-74
2022/06/20 09:05:35;;;;;;;21.02;16.88;;;;;;;;;;5126094;27;20649;-74
2022/06/20 09:08:13;;;;;;;23.50;16.17;;;;;;;;;;5112235;28;20229;-74
2022/06/20 09:10:51;;;;;;;18.52;16.20;;;;;;;;;;5112151;28;20625;-74
2022/06/20 09:13:33;;;;;;;23.17;17.30;;;;;;;;;;5091936;28;20309;-74
2022/06/20 09:16:10;;;;;;;21.90;17.15;;;;;;;;;;5092281;28;20642;-74
2022/06/20 09:18:45;;;;;;;22.40;16.00;;;;;;;;;;5092331;28;20288;-74
2022/06/20 09:21:18;;;;;;;16.27;14.10;;;;;;;;;;5092156;28;20198;-75
2022/06/20 09:23:51;;;;;;;20.58;13.93;;;;;;;;;;5104931;28;20285;-74
2022/06/20 09:26:21;;;;;;;20.13;15.07;;;;;;;;;;5112060;28;20258;-75
2022/06/20 09:28:53;;;;;;;16.38;13.95;;;;;;;;;;5112513;28;20229;-75
2022/06/20 09:31:29;;;;;;;18.70;13.63;;;;;;;;;;5112310;28;20273;-74
2022/06/20 09:34:18;;;;;;;17.50;14.55;;;;;;;;;;5111746;28;20224;-75
2022/06/20 09:36:55;;;;;;;19.85;14.32;;;;;;;;;;5111699;28;20292;-75
2022/06/20 09:39:31;;;;;;;19.88;13.57;;;;;;;;;;5112250;27;20284;-74
2022/06/20 09:42:02;;;;;;;19.15;14.02;;;;;;;;;;5111595;28;20313;-74
2022/06/20 09:44:35;;;;;;;19.02;13.65;;;;;;;;;;5112487;28;20224;-74
2022/06/20 09:47:07;;;;;;;16.17;12.27;;;;;;;;;;5108876;28;20309;-74
2022/06/20 09:49:41;;;;;;;17.42;11.90;;;;;;;;;;5112229;28;20201;-74
2022/06/20 09:52:23;;;;;;;15.50;11.90;;;;;;;;;;5111879;28;20293;-74
2022/06/20 09:54:53;;;;;;;15.15;10.07;;;;;;;;;;5111859;28;20288;-74
2022/06/20 09:57:27;;;;;;;15.90;9.80;;;;;;;;;;5125724;27;20200;-75
2022/06/20 09:59:58;;;;;;;13.02;9.80;;;;;;;;;;5111881;28;20664;-75
2022/06/20 10:02:29;;;;;;;12.75;9.55;;;;;;;;;;5111419;28;20217;-75
2022/06/20 10:05:02;;;;;;;13.15;9.77;;;;;;;;;;5117110;28;20236;-74
2022/06/20 10:07:36;;;;;;;13.05;9.68;;;;;;;;;;5133916;27;20193;-74
2022/06/20 10:10:08;;;;;;;11.02;8.98;;;;;;;;;;5131885;27;20200;-75
2022/06/20 10:12:40;;;;;;;15.27;9.85;;;;;;;;;;5132592;27;20217;-75
2022/06/20 10:15:10;;;;;;;11.82;9.13;;;;;;;;;;5132268;28;20204;-75
2022/06/20 10:17:42;;;;;;;10.77;7.38;;;;;;;;;;5132824;28;20319;-75
2022/06/20 10:20:19;;;;;;;9.80;8.07;;;;;;;;;;5132322;28;20239;-74
2022/06/20 10:22:52;;;;;;;10.73;7.78;;;;;;;;;;5131817;28;20231;-74
2022/06/20 10:25:33;;;;;;;10.43;7.75;;;;;;;;;;5115439;27;20255;-74
2022/06/20 10:28:03;;;;;;;9.50;7.70;;;;;;;;;;5136469;27;20728;-75
2022/06/20 10:30:36;;;;;;;9.82;7.63;;;;;;;;;;5136851;27;20224;-75
2022/06/20 10:33:08;;;;;;;11.65;7.75;;;;;;;;;;5136265;27;20304;-75
2022/06/20 10:35:43;;;;;;;8.73;7.70;;;;;;;;;;5132581;27;20224;-76
2022/06/20 10:38:14;;;;;;;9.15;7.55;;;;;;;;;;5132151;27;20195;-75
2022/06/20 10:40:47;;;;;;;10.20;8.10;;;;;;;;;;5140259;27;20200;-75
2022/06/20 10:43:22;;;;;;;10.27;7.22;;;;;;;;;;5135830;27;20276;-75
2022/06/20 10:45:53;;;;;;;7.38;6.60;;;;;;;;;;5129165;27;20562;-75
2022/06/20 10:48:35;;;;;;;8.93;7.20;;;;;;;;;;5135772;27;20287;-75
2022/06/20 10:51:07;;;;;;;7.90;7.10;;;;;;;;;;5131516;27;20335;-76
2022/06/20 10:53:38;;;;;;;9.65;7.20;;;;;;;;;;5132302;27;20271;-76
2022/06/20 10:56:09;;;;;;;8.95;7.15;;;;;;;;;;5132874;27;20688;-75
2022/06/20 10:58:47;;;;;;;8.98;7.65;;;;;;;;;;5135654;27;20281;-76
2022/06/20 11:01:18;;;;;;;8.73;7.68;;;;;;;;;;5133933;27;20279;-76
2022/06/20 11:03:55;;;;;;;9.95;7.18;;;;;;;;;;5132689;27;20193;-76
2022/06/20 11:06:28;;;;;;;8.73;7.10;;;;;;;;;;5136333;27;20251;-75
2022/06/20 11:09:02;;;;;;;11.00;7.47;;;;;;;;;;5142913;27;20282;-76
2022/06/20 11:11:38;;;;;;;8.93;6.50;;;;;;;;;;5116771;27;20200;-76
2022/06/20 11:14:08;;;;;;;8.55;6.80;;;;;;;;;;5143524;27;20296;-75
2022/06/20 11:16:40;;;;;;;8.07;7.03;;;;;;;;;;5149912;27;20242;-76
2022/06/20 11:19:14;;;;;;;10.02;7.63;;;;;;;;;;5135117;27;20201;-76
2022/06/20 11:21:45;;;;;;;10.10;8.40;;;;;;;;;;5132726;27;20280;-76
2022/06/20 11:24:21;;;;;;;8.02;6.68;;;;;;;;;;5135148;27;20212;-75
2022/06/20 11:26:53;;;;;;;11.30;7.82;;;;;;;;;;5135196;27;20279;-76
2022/06/20 11:29:34;;;;;;;8.32;7.38;;;;;;;;;;5133052;27;20224;-76
2022/06/20 11:32:07;;;;;;;8.10;7.30;;;;;;;;;;5133368;27;20288;-75
2022/06/20 11:34:42;;;;;;;9.23;8.18;;;;;;;;;;5135120;27;20704;-75
2022/06/20 11:37:18;;;;;;;8.75;7.82;;;;;;;;;;5133126;27;20196;-75
2022/06/20 11:39:51;;;;;;;12.27;7.72;;;;;;;;;;5134732;27;20283;-75
2022/06/20 11:42:33;;;;;;;8.40;7.22;;;;;;;;;;5131741;27;20742;-75
2022/06/20 11:45:08;;;;;;;8.18;7.20;;;;;;;;;;5130526;27;20312;-75
2022/06/20 11:47:47;;;;;;;8.30;7.05;;;;;;;;;;5132098;27;20281;-76
2022/06/20 11:50:30;;;;;;;8.40;7.50;;;;;;;;;;5131739;27;20196;-76
2022/06/20 11:53:03;;;;;;;9.35;7.50;;;;;;;;;;5131770;27;20225;-75
2022/06/20 11:55:34;;;;;;;11.50;8.25;;;;;;;;;;5133971;27;20276;-75
2022/06/20 11:58:06;;;;;;;10.27;7.45;;;;;;;;;;5134596;27;20193;-75
2022/06/20 12:00:35;;;;;;;10.82;7.00;;;;;;;;;;5131709;27;20232;-75
2022/06/20 12:03:07;;;;;;;8.55;6.43;;;;;;;;;;5134295;27;20316;-76
2022/06/20 12:05:43;;;;;;;9.35;6.63;;;;;;;;;;5125214;27;20226;-75
2022/06/20 12:08:16;;;;;;;9.77;6.68;;;;;;;;;;5123063;27;20276;-76
2022/06/20 12:10:44;;;;;;;7.43;6.60;;;;;;;;;;5122477;27;20279;-76
2022/06/20 12:13:20;;;;;;;7.18;6.47;;;;;;;;;;5118836;27;20419;-75
2022/06/20 12:15:50;;;;;;;8.25;6.90;;;;;;;;;;5116956;27;20280;-76
2022/06/20 12:18:41;;;;;;;7.22;6.53;;;;;;;;;;5122396;27;20225;-75
2022/06/20 12:24:00;;;;;;;8.80;6.68;;;;;;;;;;5119665;27;20191;-75
2022/06/20 12:26:31;;;;;;;7.18;6.35;;;;;;;;;;5119797;27;20223;-75
2022/06/20 12:28:59;;;;;;;7.50;6.50;;;;;;;;;;5120946;27;20665;-75
2022/06/20 12:31:27;;;;;;;8.10;6.65;;;;;;;;;;5122256;27;20283;-76
2022/06/20 12:33:56;;;;;;;6.95;6.25;;;;;;;;;;5105954;27;20676;-75
2022/06/20 12:36:27;;;;;;;8.20;6.95;;;;;;;;;;5117448;27;20687;-76
2022/06/20 12:39:00;;;;;;;7.82;5.63;;;;;;;;;;5112588;27;20228;-75
2022/06/20 12:41:28;;;;;;;7.97;5.97;;;;;;;;;;5119729;27;20285;-76
2022/06/20 12:44:02;;;;;;;7.88;6.22;;;;;;;;;;5117033;27;20204;-76
2022/06/20 12:46:34;;;;;;;7.38;5.35;;;;;;;;;;5122361;27;20291;-76
2022/06/20 12:49:06;;;;;;;8.45;7.10;;;;;;;;;;5117061;27;20197;-76
2022/06/20 12:51:36;;;;;;;10.02;7.05;;;;;;;;;;5123492;27;20663;-75
2022/06/20 12:54:18;;;;;;;9.80;6.25;;;;;;;;;;5120130;27;20218;-75
2022/06/20 12:56:52;;;;;;;9.30;6.68;;;;;;;;;;5120156;27;20583;-75
2022/06/20 12:59:47;;;;;;;9.52;6.32;;;;;;;;;;5121386;27;20669;-75
2022/06/20 13:02:17;;;;;;;9.57;6.25;;;;;;;;;;5122621;27;20194;-75
2022/06/20 13:04:57;;;;;;;6.43;5.38;;;;;;;;;;5116116;27;20313;-75
2022/06/20 13:07:39;;;;;;;9.73;5.90;;;;;;;;;;5126824;27;20235;-75
2022/06/20 13:10:24;;;;;;;6.68;5.88;;;;;;;;;;5133195;27;20292;-75
2022/06/20 13:13:00;;;;;;;8.60;5.43;;;;;;;;;;5133106;27;20275;-75
2022/06/20 13:15:42;;;;;;;8.20;5.97;;;;;;;;;;5132602;27;20220;-75
2022/06/20 13:18:30;;;;;;;6.22;5.20;;;;;;;;;;5128827;27;20197;-75
2022/06/20 13:21:02;;;;;;;8.20;5.35;;;;;;;;;;5132254;27;21721;-75
2022/06/20 13:23:43;;;;;;;7.40;5.22;;;;;;;;;;5133318;27;20246;-76
2022/06/20 13:26:14;;;;;;;7.68;5.25;;;;;;;;;;5132012;27;20629;-75
2022/06/20 13:28:48;;;;;;;8.85;5.50;;;;;;;;;;5132877;27;20289;-75
2022/06/20 13:31:18;;;;;;;7.97;5.65;;;;;;;;;;5141363;27;20232;-75
2022/06/20 13:33:50;;;;;;;8.40;4.85;;;;;;;;;;5133477;27;20304;-75
2022/06/20 13:36:27;;;;;;;6.32;5.18;;;;;;;;;;5132435;27;20284;-75
2022/06/20 13:38:59;;;;;;;7.38;4.78;;;;;;;;;;5132661;27;20280;-75
2022/06/20 13:41:30;;;;;;;5.47;4.80;;;;;;;;;;5131761;27;20199;-75
2022/06/20 13:44:01;;;;;;;11.48;6.50;;;;;;;;;;5136176;27;20225;-75
2022/06/20 13:46:31;;;;;;;8.20;6.68;;;;;;;;;;5130923;27;20329;-75
2022/06/20 13:49:02;;;;;;;7.45;5.95;;;;;;;;;;5132758;27;20247;-75
2022/06/20 13:51:31;;;;;;;6.85;5.82;;;;;;;;;;5132264;27;20228;-75
2022/06/20 13:54:01;;;;;;;6.85;5.28;;;;;;;;;;5132780;27;20307;-75
2022/06/20 13:56:31;;;;;;;8.20;6.00;;;;;;;;;;5132262;27;20276;-75
2022/06/20 13:59:07;;;;;;;8.27;5.93;;;;;;;;;;5132574;27;20296;-75
2022/06/20 14:01:35;;;;;;;10.80;6.50;;;;;;;;;;5131789;27;20279;-75
2022/06/20 14:04:08;;;;;;;7.10;6.15;;;;;;;;;;5132512;27;20700;-75
2022/06/20 14:06:47;;;;;;;5.97;5.35;;;;;;;;;;5113111;28;20777;-75
2022/06/20 14:09:17;;;;;;;6.63;5.68;;;;;;;;;;5111531;28;20284;-74
2022/06/20 14:11:49;;;;;;;6.80;5.00;;;;;;;;;;5111881;28;20240;-74
2022/06/20 14:14:22;;;;;;;7.70;5.45;;;;;;;;;;5113733;28;20604;-74
2022/06/20 14:16:49;;;;;;;8.23;5.20;;;;;;;;;;5111898;28;20221;-75
2022/06/20 14:19:18;;;;;;;7.25;4.95;;;;;;;;;;5112073;28;20280;-74
2022/06/20 14:21:47;;;;;;;5.95;4.55;;;;;;;;;;5112009;28;20261;-75
2022/06/20 14:24:19;;;;;;;6.53;5.53;;;;;;;;;;5114134;28;20280;-75
2022/06/20 14:26:47;;;;;;;7.18;4.82;;;;;;;;;;5112230;28;20595;-75
2022/06/20 14:29:22;;;;;;;6.95;5.10;;;;;;;;;;5111175;28;20237;-75
2022/06/20 14:31:52;;;;;;;6.25;5.07;;;;;;;;;;5111931;28;20239;-75
2022/06/20 14:34:22;;;;;;;7.68;5.57;;;;;;;;;;5111294;28;20217;-75
2022/06/20 14:36:52;;;;;;;7.47;5.47;;;;;;;;;;5122406;28;20194;-75
2022/06/20 14:39:21;;;;;;;7.43;5.07;;;;;;;;;;5111991;28;20288;-75
2022/06/20 14:41:56;;;;;;;6.60;5.28;;;;;;;;;;5111383;28;20285;-74
2022/06/20 14:44:30;;;;;;;6.95;5.28;;;;;;;;;;5111304;28;20333;-74
2022/06/20 14:47:00;;;;;;;6.72;4.80;;;;;;;;;;5111598;28;20704;-75
2022/06/20 14:49:30;;;;;;;8.50;5.35;;;;;;;;;;5110850;28;20237;-74
2022/06/20 14:51:59;;;;;;;7.97;5.95;;;;;;;;;;5111349;28;20280;-74
2022/06/20 14:54:32;;;;;;;6.93;4.97;;;;;;;;;;5111307;28;20323;-75
2022/06/20 14:57:01;;;;;;;8.93;4.95;;;;;;;;;;5103789;28;20205;-74
2022/06/20 14:59:33;;;;;;;8.73;5.35;;;;;;;;;;5110642;28;20212;-74
2022/06/20 15:02:06;;;;;;;5.72;5.13;;;;;;;;;;5111038;28;20293;-75
2022/06/20 15:04:36;;;;;;;9.38;5.68;;;;;;;;;;5127191;28;20190;-75
2022/06/20 15:07:14;;;;;;;6.68;4.63;;;;;;;;;;5107649;28;20296;-74